Terminal Aerodrome Forecast
Issued by NWS

Home | Current Version | Previous Version | Text Only | Print | Product List | Glossary On
Versions: 1 2 3 4 5 6 7 8 9 10 11 12 13 14 15 16 17 18 19 20 21
701
FTUS45 KFGZ 252325
TAFSEZ
TAF
KSEZ 252325Z 2600/2624 VRB05KT P6SM SCT040 BKN060 OVC080
      TEMPO 2600/2602 VRB10G25KT 5SM TSRA SCT020 BKN040CB
     FM260400 04008KT P6SM SCT060 SCT080 SCT250=

USA.gov is the U.S. government's official web portal to all federal, state and local government web resources and services.